Time;durP1;ratioP1;P1;durP2;ratioP2;P2;SDS_P1;SDS_P2;PMS_P1;PMS_P2;Temp;Humidity;BMP_temperature;BMP_pressure;BME280_temperature;BME280_humidity;BME280_pressure;Samples;Min_cycle;Max_cycle;Signal;HPM_P1;HPM_P2
2022/05/28 00:00:59;;;;;;;5.73;2.80;;;15.00;68.40;;;;;;6118099;23;20436;-82
2022/05/28 00:03:28;;;;;;;7.30;3.27;;;15.00;68.50;;;;;;6121114;23;20954;-82
2022/05/28 00:05:55;;;;;;;6.23;3.07;;;15.00;68.70;;;;;;6092448;23;20438;-81
2022/05/28 00:08:24;;;;;;;5.17;2.17;;;15.00;68.80;;;;;;6117158;23;20431;-82
2022/05/28 00:10:53;;;;;;;5.13;2.20;;;15.00;68.80;;;;;;6117758;23;20412;-82
2022/05/28 00:13:20;;;;;;;7.43;2.10;;;14.90;68.80;;;;;;6093379;23;20415;-83
2022/05/28 00:15:47;;;;;;;6.33;2.77;;;15.00;69.20;;;;;;6118597;23;20418;-81
2022/05/28 00:18:14;;;;;;;4.20;2.00;;;14.90;69.20;;;;;;6119280;23;20436;-82
2022/05/28 00:20:42;;;;;;;5.20;2.30;;;14.90;69.50;;;;;;6115574;23;20412;-81
2022/05/28 00:23:09;;;;;;;5.17;1.87;;;14.80;69.80;;;;;;6117790;23;20419;-81
2022/05/28 00:25:36;;;;;;;6.00;2.17;;;14.80;70.10;;;;;;6124474;23;20411;-81
2022/05/28 00:28:03;;;;;;;6.80;1.90;;;14.80;70.10;;;;;;6130028;23;20446;-82
2022/05/28 00:30:30;;;;;;;5.87;2.13;;;14.80;71.30;;;;;;6104506;23;20426;-83
2022/05/28 00:32:56;;;;;;;7.70;2.23;;;14.80;70.70;;;;;;6122338;23;20419;-82
2022/05/28 00:35:23;;;;;;;4.07;2.13;;;14.70;70.90;;;;;;6122048;23;20506;-82
2022/05/28 00:37:50;;;;;;;6.00;2.67;;;14.80;71.00;;;;;;6122686;23;21179;-83
2022/05/28 00:40:21;;;;;;;9.60;5.00;;;14.80;71.30;;;;;;6126860;23;20990;-82
2022/05/28 00:42:48;;;;;;;5.73;2.77;;;14.80;71.40;;;;;;6124965;23;20395;-83
2022/05/28 00:45:15;;;;;;;6.43;3.50;;;14.80;71.40;;;;;;6124865;23;20439;-83
2022/05/28 00:47:53;;;;;;;7.70;2.83;;;14.70;71.30;;;;;;6105833;23;20466;-82
2022/05/28 00:50:20;;;;;;;7.53;3.23;;;14.80;71.40;;;;;;6131521;23;20399;-82
2022/05/28 00:52:47;;;;;;;7.87;2.93;;;14.80;71.40;;;;;;6096170;23;20423;-84
2022/05/28 00:55:15;;;;;;;6.47;3.10;;;14.80;71.60;;;;;;6121330;23;20416;-82
2022/05/28 00:57:52;;;;;;;4.97;2.63;;;14.70;71.60;;;;;;6120492;23;20447;-84
2022/05/28 01:00:25;;;;;;;9.27;2.87;;;14.70;71.70;;;;;;6120076;23;21573;-83
2022/05/28 01:03:19;;;;;;;7.43;2.50;;;14.60;72.00;;;;;;6098662;23;20486;-82
2022/05/28 01:06:04;;;;;;;4.00;2.00;;;14.60;72.20;;;;;;6121669;23;20412;-84
2022/05/28 01:08:49;;;;;;;6.47;2.23;;;14.50;72.40;;;;;;6121642;23;20672;-82
2022/05/28 01:11:27;;;;;;;7.97;2.73;;;14.60;72.90;;;;;;6096760;23;20396;-82
2022/05/28 01:14:07;;;;;;;5.83;2.10;;;14.70;72.70;;;;;;6119757;23;20415;-83
2022/05/28 01:16:41;;;;;;;5.43;2.13;;;14.60;72.50;;;;;;6122228;23;20419;-83
2022/05/28 01:19:18;;;;;;;10.53;2.47;;;14.50;73.60;;;;;;6120748;23;20430;-83
2022/05/28 01:22:07;;;;;;;5.10;2.40;;;14.40;73.00;;;;;;6119236;23;21346;-83
2022/05/28 01:24:40;;;;;;;6.70;2.30;;;14.50;73.50;;;;;;6124189;23;20391;-82
2022/05/28 01:27:14;;;;;;;9.80;2.17;;;14.50;73.40;;;;;;6142881;23;20423;-82
2022/05/28 01:29:47;;;;;;;6.97;2.00;;;14.50;73.30;;;;;;6143214;23;20459;-81
2022/05/28 01:32:17;;;;;;;7.23;2.20;;;14.50;73.30;;;;;;6107492;23;20427;-83
2022/05/28 01:34:44;;;;;;;5.57;1.90;;;14.50;73.60;;;;;;6065469;23;20507;-83
2022/05/28 01:37:12;;;;;;;8.03;2.80;;;14.60;73.40;;;;;;6117008;23;20430;-80
2022/05/28 01:39:42;;;;;;;5.37;2.13;;;14.50;73.30;;;;;;6118096;23;20451;-82
2022/05/28 01:42:10;;;;;;;4.53;1.60;;;14.60;73.70;;;;;;6114320;23;20414;-83
2022/05/28 01:44:40;;;;;;;5.10;1.63;;;14.60;73.80;;;;;;6090832;23;20422;-81
2022/05/28 01:47:11;;;;;;;4.07;1.73;;;14.60;73.50;;;;;;6116744;23;20878;-83
2022/05/28 01:49:39;;;;;;;4.53;1.60;;;14.50;73.70;;;;;;6093523;23;20431;-82
2022/05/28 01:52:08;;;;;;;7.27;1.97;;;14.50;73.90;;;;;;6118989;23;20422;-83
2022/05/28 01:54:40;;;;;;;6.10;2.67;;;14.50;74.00;;;;;;6117068;23;20419;-82
2022/05/28 01:57:07;;;;;;;5.73;2.37;;;14.50;74.00;;;;;;6116516;23;20467;-83
2022/05/28 01:59:36;;;;;;;8.30;2.37;;;14.50;74.50;;;;;;6117710;23;20449;-83
2022/05/28 02:02:10;;;;;;;4.03;1.73;;;14.40;74.50;;;;;;6122936;23;20436;-84
2022/05/28 02:04:40;;;;;;;4.73;2.10;;;14.50;75.10;;;;;;6091876;23;20832;-84
2022/05/28 02:07:07;;;;;;;4.83;2.20;;;14.50;75.00;;;;;;6116714;23;21218;-81
2022/05/28 02:09:48;;;;;;;4.43;1.87;;;14.50;75.00;;;;;;6114731;23;20414;-81
2022/05/28 02:12:31;;;;;;;4.27;2.20;;;14.50;75.10;;;;;;6114633;23;20407;-83
2022/05/28 02:15:10;;;;;;;6.27;2.17;;;14.40;75.20;;;;;;6089169;23;20434;-82
2022/05/28 02:17:53;;;;;;;6.60;2.20;;;14.40;75.30;;;;;;6118444;23;20558;-81
2022/05/28 02:20:35;;;;;;;8.33;2.50;;;14.40;75.40;;;;;;6116179;23;20947;-82
2022/05/28 02:23:36;;;;;;;8.87;2.50;;;14.30;75.80;;;;;;6093869;23;20400;-81
2022/05/28 02:26:12;;;;;;;4.70;1.80;;;14.20;76.10;;;;;;6113573;23;20406;-81
2022/05/28 02:28:41;;;;;;;5.17;1.87;;;14.20;76.20;;;;;;6113127;23;20435;-82
2022/05/28 02:31:29;;;;;;;6.43;2.23;;;14.20;76.80;;;;;;6089921;23;20423;-83
2022/05/28 02:33:56;;;;;;;5.63;2.53;;;14.20;76.80;;;;;;6120108;23;20396;-81
2022/05/28 02:36:26;;;;;;;5.83;2.43;;;14.10;77.10;;;;;;6095943;23;20450;-81
2022/05/28 02:38:53;;;;;;;5.80;1.97;;;14.10;77.40;;;;;;6122640;23;20431;-83
2022/05/28 02:41:20;;;;;;;5.23;2.30;;;14.10;77.60;;;;;;6122268;23;21211;-82
2022/05/28 02:43:47;;;;;;;6.77;2.20;;;14.10;77.60;;;;;;6119299;23;20412;-84
2022/05/28 02:46:14;;;;;;;10.30;2.43;;;14.10;77.70;;;;;;6120261;23;20407;-84
2022/05/28 02:48:45;;;;;;;5.70;1.90;;;14.10;78.00;;;;;;6094511;23;20503;-83
2022/05/28 02:51:16;;;;;;;8.90;2.10;;;14.10;78.30;;;;;;6121311;23;20430;-84
2022/05/28 02:53:43;;;;;;;7.20;2.40;;;14.10;78.40;;;;;;6121108;23;20385;-84
2022/05/28 02:56:11;;;;;;;3.13;2.33;;;14.10;78.30;;;;;;6094606;23;20990;-84
2022/05/28 02:58:39;;;;;;;5.70;2.00;;;14.10;78.40;;;;;;6120736;23;20439;-82
2022/05/28 03:01:24;;;;;;;6.00;1.83;;;14.10;78.50;;;;;;6119810;23;20448;-84
2022/05/28 03:03:52;;;;;;;4.70;2.20;;;14.20;79.00;;;;;;6120272;23;20731;-82
2022/05/28 03:06:18;;;;;;;6.67;2.10;;;14.20;79.00;;;;;;6095607;23;20416;-81
2022/05/28 03:08:49;;;;;;;6.50;2.30;;;14.20;79.30;;;;;;6096166;23;20418;-83
2022/05/28 03:11:16;;;;;;;10.10;2.33;;;14.20;79.20;;;;;;6096377;23;20408;-84
2022/05/28 03:13:45;;;;;;;5.17;2.07;;;14.20;79.10;;;;;;6099751;23;20384;-84
2022/05/28 03:16:12;;;;;;;7.30;2.50;;;14.20;79.40;;;;;;6120733;23;20432;-82
2022/05/28 03:18:40;;;;;;;4.97;2.13;;;14.10;79.60;;;;;;6122591;23;20432;-82
2022/05/28 03:21:07;;;;;;;14.23;4.93;;;14.10;80.00;;;;;;6122541;23;20447;-81
2022/05/28 03:23:34;;;;;;;5.40;1.80;;;14.10;80.10;;;;;;6122804;23;20404;-82
2022/05/28 03:26:12;;;;;;;4.80;2.77;;;14.10;80.30;;;;;;6100109;23;20422;-82
2022/05/28 03:28:40;;;;;;;13.43;2.60;;;14.10;80.30;;;;;;6128721;23;21039;-83
2022/05/28 03:31:07;;;;;;;3.33;1.87;;;14.20;80.70;;;;;;6135302;23;20426;-83
2022/05/28 03:33:33;;;;;;;5.73;2.40;;;14.10;80.90;;;;;;6105775;23;20410;-83
2022/05/28 03:36:00;;;;;;;8.93;2.10;;;14.10;81.20;;;;;;6138743;23;20479;-83
2022/05/28 03:38:28;;;;;;;8.27;2.20;;;14.20;81.50;;;;;;6114305;23;20442;-82
2022/05/28 03:40:54;;;;;;;5.73;2.47;;;14.10;81.50;;;;;;6144881;23;20434;-82
2022/05/28 03:43:21;;;;;;;8.00;2.90;;;14.10;81.80;;;;;;6147367;23;20454;-81
2022/05/28 03:45:48;;;;;;;5.73;2.33;;;14.10;82.20;;;;;;6148141;23;20412;-82
2022/05/28 03:48:14;;;;;;;5.07;2.57;;;14.20;82.50;;;;;;6143308;23;20443;-80
2022/05/28 03:50:41;;;;;;;7.17;2.77;;;14.20;82.50;;;;;;6147123;23;20407;-82
2022/05/28 03:53:08;;;;;;;7.20;2.20;;;14.20;82.80;;;;;;6122545;23;20392;-81
2022/05/28 03:55:39;;;;;;;5.20;2.63;;;14.10;83.00;;;;;;6147348;23;20400;-82
2022/05/28 03:58:06;;;;;;;5.27;2.10;;;14.10;83.50;;;;;;6147291;23;20466;-80
2022/05/28 04:00:33;;;;;;;5.50;2.13;;;14.10;84.00;;;;;;6145190;23;20491;-82
2022/05/28 04:03:02;;;;;;;5.27;2.37;;;14.20;84.30;;;;;;6119712;23;20427;-82
2022/05/28 04:05:30;;;;;;;9.40;2.73;;;14.20;84.70;;;;;;6145709;23;20396;-82
2022/05/28 04:07:57;;;;;;;8.50;2.67;;;14.20;84.80;;;;;;6144060;23;20459;-82
2022/05/28 04:10:24;;;;;;;6.73;2.97;;;14.10;85.10;;;;;;6141225;23;20426;-81
2022/05/28 04:12:51;;;;;;;8.70;3.17;;;14.10;85.40;;;;;;6128944;23;20479;-83
2022/05/28 04:15:19;;;;;;;10.30;2.43;;;14.20;85.70;;;;;;6093554;23;20479;-83
2022/05/28 04:17:45;;;;;;;6.30;2.20;;;14.20;85.90;;;;;;6113749;23;20420;-83
2022/05/28 04:20:13;;;;;;;6.17;2.17;;;14.10;86.10;;;;;;6113035;23;20443;-83
2022/05/28 04:22:40;;;;;;;5.80;2.63;;;14.10;86.40;;;;;;6096114;23;21125;-83
2022/05/28 04:25:07;;;;;;;5.50;2.30;;;14.10;86.90;;;;;;6086950;23;20408;-82
2022/05/28 04:27:34;;;;;;;5.93;2.50;;;14.00;87.00;;;;;;6111481;23;20997;-83
2022/05/28 04:30:03;;;;;;;9.50;2.90;;;14.00;87.20;;;;;;6092349;23;20791;-84
2022/05/28 04:32:29;;;;;;;7.60;2.73;;;14.00;87.50;;;;;;6114686;23;20643;-82
2022/05/28 04:34:56;;;;;;;8.53;3.10;;;14.00;87.80;;;;;;6114807;23;20404;-82
2022/05/28 04:37:23;;;;;;;4.97;2.30;;;14.00;88.50;;;;;;6096577;23;20492;-82
2022/05/28 04:39:49;;;;;;;6.50;2.30;;;14.00;89.10;;;;;;6119425;23;20443;-84
2022/05/28 04:42:16;;;;;;;5.70;3.47;;;14.00;89.50;;;;;;6115511;23;20403;-81
2022/05/28 04:44:43;;;;;;;6.60;2.47;;;14.00;89.70;;;;;;6115743;23;20402;-82
2022/05/28 04:47:11;;;;;;;7.80;2.97;;;14.10;90.00;;;;;;6089231;23;20423;-83
2022/05/28 04:49:38;;;;;;;7.97;2.43;;;14.20;90.20;;;;;;6114885;23;20420;-82
2022/05/28 04:52:05;;;;;;;8.10;2.77;;;14.20;90.20;;;;;;6116133;23;20408;-82
2022/05/28 04:54:32;;;;;;;8.63;2.50;;;14.20;90.80;;;;;;6092028;23;20412;-82
2022/05/28 04:56:58;;;;;;;7.90;3.00;;;14.20;90.70;;;;;;6117483;23;20411;-83
2022/05/28 04:59:27;;;;;;;13.17;3.17;;;14.20;90.90;;;;;;6089987;23;20403;-82
2022/05/28 05:01:54;;;;;;;7.20;2.63;;;14.30;91.20;;;;;;6116061;23;20840;-83
2022/05/28 05:04:20;;;;;;;6.83;2.83;;;14.30;91.40;;;;;;6114895;23;20464;-81
2022/05/28 05:06:47;;;;;;;7.57;2.90;;;14.30;91.40;;;;;;6115483;23;20541;-82
2022/05/28 05:09:14;;;;;;;10.17;3.17;;;14.20;91.60;;;;;;6093243;23;20426;-82
2022/05/28 05:11:43;;;;;;;4.37;2.70;;;14.20;92.00;;;;;;6115633;23;21016;-81
2022/05/28 05:14:10;;;;;;;9.90;3.27;;;14.10;92.20;;;;;;6093221;23;20479;-83
2022/05/28 05:16:37;;;;;;;6.93;4.10;;;14.20;92.20;;;;;;6093266;23;20384;-80
2022/05/28 05:19:04;;;;;;;6.23;3.20;;;14.20;92.10;;;;;;6118627;23;20510;-81
2022/05/28 05:21:30;;;;;;;9.70;3.10;;;14.20;92.40;;;;;;6120261;23;20753;-83
2022/05/28 05:23:57;;;;;;;5.43;3.10;;;14.20;92.50;;;;;;6129585;23;20422;-82
2022/05/28 05:26:24;;;;;;;5.13;2.70;;;14.30;92.30;;;;;;6133556;23;20435;-83
2022/05/28 05:28:51;;;;;;;7.63;3.70;;;14.40;92.20;;;;;;6108156;23;20442;-82
2022/05/28 05:31:18;;;;;;;4.87;3.30;;;14.40;92.30;;;;;;6085779;23;20479;-83
2022/05/28 05:33:45;;;;;;;6.33;3.00;;;14.40;92.30;;;;;;6123603;23;20418;-82
2022/05/28 05:36:13;;;;;;;8.20;2.73;;;14.40;92.30;;;;;;6130058;23;20947;-84
2022/05/28 05:38:40;;;;;;;6.87;2.67;;;14.40;92.50;;;;;;6094706;23;20491;-82
2022/05/28 05:41:07;;;;;;;6.83;3.43;;;14.40;92.60;;;;;;6120273;23;20443;-84
2022/05/28 05:43:34;;;;;;;7.03;2.60;;;14.50;92.70;;;;;;6119415;23;20746;-83
2022/05/28 05:46:01;;;;;;;11.50;3.43;;;14.50;92.90;;;;;;6120839;23;20408;-84
2022/05/28 05:48:30;;;;;;;12.43;3.73;;;14.60;92.90;;;;;;6093053;23;20515;-83
2022/05/28 05:51:05;;;;;;;10.40;4.30;;;14.60;93.10;;;;;;6123395;23;20528;-84
2022/05/28 05:53:32;;;;;;;7.40;3.27;;;14.60;93.10;;;;;;6119723;23;20399;-85
2022/05/28 05:55:59;;;;;;;9.10;2.80;;;14.60;93.20;;;;;;6120225;23;20894;-84
2022/05/28 05:58:25;;;;;;;7.77;3.50;;;14.60;93.40;;;;;;6118768;23;20546;-85
2022/05/28 06:00:52;;;;;;;7.90;3.03;;;14.80;93.40;;;;;;6119376;23;20880;-83
2022/05/28 06:03:19;;;;;;;6.83;2.77;;;14.80;93.30;;;;;;6124643;23;20396;-82
2022/05/28 06:05:46;;;;;;;5.70;2.73;;;14.90;93.30;;;;;;6121207;23;20423;-85
2022/05/28 06:08:15;;;;;;;9.03;2.67;;;15.10;93.10;;;;;;6120887;23;20432;-84
2022/05/28 06:10:45;;;;;;;10.00;2.77;;;15.10;92.90;;;;;;6120494;23;20427;-84
2022/05/28 06:13:12;;;;;;;8.93;2.80;;;15.00;93.00;;;;;;6122934;23;20412;-83
2022/05/28 06:15:38;;;;;;;4.00;2.23;;;15.00;93.30;;;;;;6095739;23;20415;-82
2022/05/28 06:18:07;;;;;;;7.60;3.63;;;15.00;93.30;;;;;;6122056;23;20514;-84
2022/05/28 06:20:34;;;;;;;6.73;2.57;;;15.10;93.10;;;;;;6125366;23;20453;-83
2022/05/28 06:23:02;;;;;;;4.73;2.20;;;15.20;93.00;;;;;;6128138;23;20492;-82
2022/05/28 06:25:29;;;;;;;8.60;2.67;;;15.30;92.60;;;;;;6103388;23;20480;-82
2022/05/28 06:27:57;;;;;;;6.10;1.80;;;15.40;92.50;;;;;;6122013;23;20511;-81
2022/05/28 06:30:24;;;;;;;6.83;2.43;;;15.30;92.20;;;;;;6122303;23;20443;-83
2022/05/28 06:32:50;;;;;;;7.73;2.47;;;15.30;92.20;;;;;;6101455;23;20412;-83
2022/05/28 06:35:17;;;;;;;4.13;1.97;;;15.40;92.20;;;;;;6129395;23;20412;-83
2022/05/28 06:37:44;;;;;;;10.00;2.80;;;15.40;92.20;;;;;;6121860;23;20463;-82
2022/05/28 06:40:11;;;;;;;5.93;2.63;;;15.50;91.60;;;;;;6124737;23;20447;-84
2022/05/28 06:42:38;;;;;;;3.17;2.10;;;15.60;91.60;;;;;;6123650;23;20407;-81
2022/05/28 06:45:05;;;;;;;4.67;1.90;;;15.50;91.00;;;;;;6117740;23;20418;-81
2022/05/28 06:47:32;;;;;;;7.77;1.80;;;15.40;91.00;;;;;;6140526;23;20451;-83
2022/05/28 06:52:44;;;;;;;4.93;2.20;;;15.60;90.60;;;;;;6117507;23;20463;-83
2022/05/28 06:55:10;;;;;;;4.73;2.37;;;15.80;90.50;;;;;;6116624;23;20423;-83
2022/05/28 06:57:37;;;;;;;4.33;2.00;;;15.60;90.20;;;;;;6099070;23;20458;-84
2022/05/28 07:00:04;;;;;;;7.00;2.97;;;15.50;90.10;;;;;;6116837;23;20878;-83
2022/05/28 07:02:31;;;;;;;4.10;2.17;;;15.30;89.80;;;;;;6117585;23;20398;-83
2022/05/28 07:04:57;;;;;;;11.43;2.90;;;15.20;90.20;;;;;;6116781;23;20422;-82
2022/05/28 07:07:24;;;;;;;4.63;1.90;;;15.40;90.50;;;;;;6115829;23;20438;-82
2022/05/28 07:09:51;;;;;;;8.53;1.97;;;15.40;90.20;;;;;;6089737;23;21440;-82
2022/05/28 07:12:17;;;;;;;3.83;2.07;;;15.50;90.00;;;;;;6090938;23;20415;-83
2022/05/28 07:14:44;;;;;;;7.00;2.90;;;15.50;88.90;;;;;;6119394;23;20499;-83
2022/05/28 07:17:11;;;;;;;3.73;2.03;;;15.50;88.40;;;;;;6115917;23;20428;-84
2022/05/28 07:19:37;;;;;;;6.87;2.23;;;15.40;89.00;;;;;;6090159;23;20415;-82
2022/05/28 07:22:04;;;;;;;4.70;1.83;;;15.40;88.60;;;;;;6090044;23;20535;-81
2022/05/28 07:24:31;;;;;;;5.47;2.23;;;15.40;88.60;;;;;;6089837;23;21331;-82
2022/05/28 07:26:58;;;;;;;6.87;1.70;;;15.50;88.40;;;;;;6089806;23;20955;-81
2022/05/28 07:29:24;;;;;;;4.40;1.73;;;15.40;88.10;;;;;;6119085;23;20752;-82
2022/05/28 07:31:51;;;;;;;4.73;2.17;;;15.40;87.80;;;;;;6114825;23;20411;-82
2022/05/28 07:34:18;;;;;;;5.27;2.27;;;15.60;88.00;;;;;;6116442;23;20787;-83
2022/05/28 07:36:45;;;;;;;1.90;1.30;;;15.80;87.00;;;;;;6115653;23;20466;-85
2022/05/28 07:39:11;;;;;;;5.20;1.67;;;15.90;86.50;;;;;;6116335;23;20419;-82
2022/05/28 07:41:38;;;;;;;7.13;1.70;;;15.90;85.20;;;;;;6117618;23;20511;-81
2022/05/28 07:44:05;;;;;;;6.73;1.70;;;16.20;84.40;;;;;;6117569;23;20415;-81
2022/05/28 07:46:33;;;;;;;4.67;1.33;;;16.50;82.20;;;;;;6122229;23;20416;-81
2022/05/28 07:49:01;;;;;;;4.40;1.07;;;16.50;79.70;;;;;;6117268;23;20435;-82
2022/05/28 07:51:31;;;;;;;5.20;1.20;;;16.90;78.10;;;;;;6117190;23;20401;-82
2022/05/28 07:53:58;;;;;;;6.57;1.77;;;16.90;76.10;;;;;;6116037;23;20424;-82
2022/05/28 07:56:25;;;;;;;3.60;1.73;;;17.20;74.90;;;;;;6115549;23;20852;-81
2022/05/28 07:58:54;;;;;;;2.70;1.60;;;17.30;74.60;;;;;;6091846;23;20419;-84
2022/05/28 08:01:23;;;;;;;3.37;0.97;;;17.30;73.40;;;;;;6116431;23;20451;-84
2022/05/28 08:03:50;;;;;;;6.87;1.40;;;17.10;73.00;;;;;;6115738;23;20939;-82
2022/05/28 08:06:18;;;;;;;5.53;1.50;;;17.20;72.80;;;;;;6092315;23;20416;-83
2022/05/28 08:08:46;;;;;;;3.80;1.93;;;17.20;72.30;;;;;;6116477;23;20454;-84
2022/05/28 08:11:14;;;;;;;3.53;1.90;;;17.60;71.00;;;;;;6091698;23;20420;-84
2022/05/28 08:13:42;;;;;;;3.03;1.10;;;18.60;67.30;;;;;;6093765;23;20439;-82
2022/05/28 08:16:09;;;;;;;2.20;1.33;;;18.20;65.00;;;;;;6120711;23;20427;-82
2022/05/28 08:18:41;;;;;;;3.53;1.00;;;17.90;66.20;;;;;;6117794;23;20991;-82
2022/05/28 08:23:55;;;;;;;2.17;0.90;;;18.50;62.80;;;;;;6122907;23;20396;-81
2022/05/28 08:26:23;;;;;;;4.20;1.60;;;18.60;63.40;;;;;;6107609;23;20451;-84
2022/05/28 08:28:51;;;;;;;2.47;1.40;;;18.70;60.90;;;;;;6093694;23;20436;-82
2022/05/28 08:31:19;;;;;;;4.83;1.20;;;18.60;61.40;;;;;;6092337;23;20438;-82
2022/05/28 08:33:46;;;;;;;4.40;1.30;;;18.50;60.00;;;;;;6116791;23;20434;-82
2022/05/28 08:36:13;;;;;;;2.10;0.80;;;18.80;59.70;;;;;;6116816;23;20415;-82
2022/05/28 08:38:41;;;;;;;5.37;1.10;;;19.00;57.80;;;;;;6117848;23;20967;-82
2022/05/28 08:41:21;;;;;;;2.17;1.07;;;19.30;57.20;;;;;;6091662;23;20435;-81
2022/05/28 08:43:53;;;;;;;2.33;0.97;;;19.70;56.80;;;;;;6118198;23;20396;-83
2022/05/28 08:46:23;;;;;;;3.70;1.10;;;20.50;55.20;;;;;;6119017;23;20415;-84
2022/05/28 08:48:53;;;;;;;2.17;0.93;;;21.10;54.10;;;;;;6120474;23;20426;-82
2022/05/28 08:51:48;;;;;;;3.37;1.30;;;21.30;54.50;;;;;;6094092;23;20818;-82
2022/05/28 08:54:43;;;;;;;4.13;1.50;;;21.10;54.10;;;;;;6093677;23;20402;-82
2022/05/28 08:57:15;;;;;;;3.77;1.30;;;20.70;54.40;;;;;;6119432;23;20450;-83
2022/05/28 08:59:54;;;;;;;6.40;1.63;;;20.80;54.70;;;;;;6095933;23;20404;-83
2022/05/28 09:02:34;;;;;;;1.53;1.00;;;21.40;54.00;;;;;;6121364;23;20423;-81
2022/05/28 09:05:01;;;;;;;2.53;1.40;;;21.40;52.00;;;;;;6099767;23;20407;-82
2022/05/28 09:07:32;;;;;;;2.67;1.20;;;20.80;52.80;;;;;;6123127;23;20462;-84
2022/05/28 09:09:59;;;;;;;2.70;1.20;;;20.60;53.00;;;;;;6124870;23;20407;-81
2022/05/28 09:12:42;;;;;;;2.30;1.10;;;20.60;52.60;;;;;;6095793;23;21340;-83
2022/05/28 09:15:10;;;;;;;3.90;1.33;;;20.20;53.20;;;;;;6124673;23;20419;-84
2022/05/28 09:17:41;;;;;;;3.93;1.50;;;19.70;54.90;;;;;;6119100;23;20450;-83
2022/05/28 09:20:14;;;;;;;2.87;1.03;;;21.10;54.60;;;;;;6093371;23;21281;-84
2022/05/28 09:22:40;;;;;;;2.97;0.83;;;22.60;52.50;;;;;;6120715;23;20538;-83
2022/05/28 09:25:08;;;;;;;3.67;1.10;;;24.40;48.30;;;;;;6120555;23;20434;-83
2022/05/28 09:28:02;;;;;;;5.90;1.50;;;25.30;44.80;;;;;;6119478;23;20435;-83
2022/05/28 09:30:51;;;;;;;1.97;1.10;;;23.80;44.80;;;;;;6119477;23;20399;-84
2022/05/28 09:33:21;;;;;;;3.80;2.33;;;23.80;45.90;;;;;;6118457;23;20404;-84
2022/05/28 09:36:29;;;;;;;3.20;2.90;;;23.90;45.30;;;;;;6119393;23;20407;-83
2022/05/28 09:39:03;;;;;;;4.00;1.90;;;23.10;45.50;;;;;;6050374;23;20444;-85
2022/05/28 09:41:46;;;;;;;2.00;1.60;;;22.70;46.40;;;;;;6090928;23;20509;-83
2022/05/28 09:44:39;;;;;;;4.73;3.90;;;23.80;44.50;;;;;;6122848;23;20408;-84
2022/05/28 09:47:08;;;;;;;2.17;1.60;;;24.50;41.90;;;;;;6050622;23;20438;-83
2022/05/28 09:49:55;;;;;;;3.20;1.07;;;24.40;41.30;;;;;;6095016;23;20400;-82
2022/05/28 09:52:34;;;;;;;1.97;1.10;;;23.90;41.20;;;;;;6094232;23;20419;-83
2022/05/28 09:55:16;;;;;;;1.50;1.10;;;22.90;43.00;;;;;;6091733;23;20419;-83
2022/05/28 09:57:52;;;;;;;1.70;0.70;;;23.20;43.50;;;;;;6116415;23;21361;-82
2022/05/28 10:00:21;;;;;;;1.23;0.70;;;24.10;41.10;;;;;;6093241;23;20392;-83
2022/05/28 10:05:54;;;;;;;2.50;0.83;;;23.80;39.40;;;;;;6118840;23;20939;-83
2022/05/28 10:08:29;;;;;;;2.70;1.20;;;24.30;40.00;;;;;;6118862;23;20438;-82
2022/05/28 10:11:00;;;;;;;1.93;0.80;;;24.90;38.20;;;;;;6118733;23;20802;-82
2022/05/28 10:13:30;;;;;;;3.40;0.80;;;24.70;36.20;;;;;;6120036;23;21417;-83
2022/05/28 10:16:04;;;;;;;1.23;0.90;;;24.30;36.50;;;;;;6110689;23;20415;-81
2022/05/28 10:18:36;;;;;;;1.67;0.90;;;23.90;36.40;;;;;;6107368;23;20451;-83
2022/05/28 10:21:09;;;;;;;1.47;0.70;;;23.90;36.10;;;;;;6118555;23;20446;-83
2022/05/28 10:23:41;;;;;;;1.50;0.80;;;24.00;35.70;;;;;;6116039;23;21121;-84
2022/05/28 10:26:46;;;;;;;1.87;0.90;;;24.10;36.90;;;;;;6121542;23;20415;-82
2022/05/28 10:29:20;;;;;;;0.83;0.60;;;24.50;36.80;;;;;;5973373;24;20419;-82
2022/05/28 10:31:49;;;;;;;2.67;1.27;;;24.50;36.60;;;;;;6100022;23;20419;-82
2022/05/28 10:34:31;;;;;;;1.67;1.07;;;23.90;37.20;;;;;;6118489;23;20411;-82
2022/05/28 10:37:19;;;;;;;2.27;0.93;;;22.90;38.80;;;;;;6118827;23;20974;-82
2022/05/28 10:39:47;;;;;;;2.10;1.10;;;22.00;41.30;;;;;;6126520;23;20439;-81
2022/05/28 10:42:16;;;;;;;3.00;1.17;;;21.40;42.50;;;;;;6100845;23;21021;-81
2022/05/28 10:44:44;;;;;;;3.20;0.80;;;21.70;42.70;;;;;;6098198;23;20404;-83
2022/05/28 10:47:14;;;;;;;1.73;1.00;;;22.40;41.50;;;;;;6125096;23;20443;-82
2022/05/28 10:49:59;;;;;;;1.97;1.37;;;22.80;40.10;;;;;;6122035;23;20412;-82
2022/05/28 10:52:49;;;;;;;2.40;1.10;;;23.20;39.70;;;;;;6097821;23;20404;-82
2022/05/28 10:55:38;;;;;;;2.57;0.93;;;24.00;38.50;;;;;;6124999;23;20403;-83
2022/05/28 10:58:20;;;;;;;2.60;0.90;;;24.20;37.10;;;;;;6096929;23;20439;-81
2022/05/28 11:01:01;;;;;;;2.83;0.80;;;24.10;37.40;;;;;;6122869;23;20400;-83
2022/05/28 11:04:09;;;;;;;4.67;1.83;;;23.50;37.60;;;;;;6126192;23;20392;-82
2022/05/28 11:06:51;;;;;;;2.10;1.30;;;23.40;38.80;;;;;;6132439;23;20418;-83
2022/05/28 11:09:36;;;;;;;1.73;1.10;;;24.00;38.70;;;;;;6135986;23;20384;-82
2022/05/28 11:12:20;;;;;;;2.17;1.50;;;23.90;37.90;;;;;;6139913;23;20494;-82
2022/05/28 11:15:28;;;;;;;3.50;1.27;;;24.30;38.00;;;;;;6111828;23;20408;-83
2022/05/28 11:17:58;;;;;;;1.67;1.20;;;24.90;37.50;;;;;;5983087;24;20458;-82
2022/05/28 11:21:07;;;;;;;3.60;1.00;;;25.70;35.90;;;;;;6072407;23;20482;-83
2022/05/28 11:23:49;;;;;;;2.67;1.00;;;24.50;35.00;;;;;;6113080;23;20480;-82
2022/05/28 11:26:43;;;;;;;4.60;1.10;;;24.20;35.40;;;;;;6135065;23;20417;-82
2022/05/28 11:29:22;;;;;;;2.80;1.10;;;25.30;35.60;;;;;;6111052;23;20522;-82
2022/05/28 11:32:06;;;;;;;4.03;1.40;;;24.40;35.50;;;;;;6125319;23;20415;-82
2022/05/28 11:34:43;;;;;;;3.50;1.53;;;23.30;35.90;;;;;;6125143;23;20446;-83
2022/05/28 11:37:11;;;;;;;3.73;2.20;;;22.80;36.50;;;;;;6120423;23;20434;-84
2022/05/28 11:40:04;;;;;;;1.97;1.30;;;22.70;37.10;;;;;;6123859;23;20388;-83
2022/05/28 11:42:48;;;;;;;1.23;1.00;;;23.10;36.80;;;;;;6126565;23;20671;-85
2022/05/28 11:45:43;;;;;;;4.00;1.47;;;23.30;36.10;;;;;;6122653;23;20415;-84
2022/05/28 11:48:20;;;;;;;5.73;1.63;;;23.40;36.20;;;;;;6103365;23;20435;-83
2022/05/28 11:54:03;;;;;;;4.10;1.07;;;23.20;35.20;;;;;;6123620;23;21204;-83
2022/05/28 11:56:30;;;;;;;2.27;1.20;;;23.00;34.00;;;;;;6123808;23;20396;-83
2022/05/28 11:59:11;;;;;;;2.80;1.50;;;22.40;35.30;;;;;;6100647;23;20919;-83
2022/05/28 12:02:00;;;;;;;4.37;1.60;;;21.90;36.60;;;;;;6096832;23;20447;-83
2022/05/28 12:04:30;;;;;;;3.50;1.10;;;21.70;37.40;;;;;;6070410;23;20583;-83
2022/05/28 12:07:14;;;;;;;1.27;0.90;;;22.10;37.70;;;;;;6125987;23;20502;-82
2022/05/28 12:09:44;;;;;;;2.70;1.27;;;22.50;36.90;;;;;;6102067;23;20490;-83
2022/05/28 12:12:20;;;;;;;3.57;1.10;;;22.90;34.60;;;;;;6128048;23;20392;-84
2022/05/28 12:15:02;;;;;;;3.17;1.00;;;22.80;33.90;;;;;;6126184;23;20403;-84
2022/05/28 12:17:33;;;;;;;2.60;1.30;;;22.70;34.20;;;;;;6099318;23;20455;-83
2022/05/28 12:20:08;;;;;;;3.47;1.57;;;22.60;35.20;;;;;;6125786;23;20396;-83
2022/05/28 12:22:39;;;;;;;2.83;1.50;;;23.10;35.00;;;;;;6126209;23;20527;-83
2022/05/28 12:25:19;;;;;;;2.60;0.93;;;23.10;34.20;;;;;;6125477;23;20455;-82
2022/05/28 12:28:08;;;;;;;3.70;0.93;;;23.10;34.20;;;;;;6125665;23;20459;-81
2022/05/28 12:30:43;;;;;;;2.87;1.10;;;22.80;35.00;;;;;;6104438;23;20407;-82
2022/05/28 12:33:28;;;;;;;1.90;1.10;;;22.20;35.80;;;;;;6127900;23;20400;-85
2022/05/28 12:36:01;;;;;;;3.80;2.10;;;21.80;36.50;;;;;;6127576;23;20494;-83
2022/05/28 12:38:59;;;;;;;5.43;1.77;;;21.50;37.10;;;;;;6127493;23;20463;-84
2022/05/28 12:41:29;;;;;;;1.70;1.00;;;21.50;37.70;;;;;;6132026;23;20418;-83
2022/05/28 12:44:05;;;;;;;2.87;0.90;;;21.60;37.70;;;;;;6144480;23;20427;-81
2022/05/28 12:46:42;;;;;;;2.40;0.90;;;21.50;38.00;;;;;;6146426;23;20467;-81
2022/05/28 12:49:33;;;;;;;2.50;1.33;;;21.60;38.20;;;;;;6119093;23;20434;-83
2022/05/28 12:52:28;;;;;;;1.10;0.97;;;21.80;38.40;;;;;;6119613;23;20400;-83
2022/05/28 12:55:09;;;;;;;1.27;0.90;;;22.00;37.80;;;;;;6116901;23;20435;-82
2022/05/28 12:57:36;;;;;;;2.70;1.10;;;21.90;37.30;;;;;;6127060;23;20457;-83
2022/05/28 13:00:19;;;;;;;5.73;1.40;;;22.10;37.00;;;;;;6100237;23;20403;-83
2022/05/28 13:02:47;;;;;;;1.90;1.47;;;22.10;36.70;;;;;;6132635;23;20430;-84
2022/05/28 13:05:36;;;;;;;3.50;1.33;;;22.30;37.10;;;;;;6105949;23;20447;-83
2022/05/28 13:08:08;;;;;;;2.60;1.30;;;22.40;38.00;;;;;;6102314;23;20742;-81
2022/05/28 13:10:35;;;;;;;2.50;1.20;;;22.70;38.50;;;;;;6106325;23;20430;-81
2022/05/28 13:13:27;;;;;;;3.03;1.17;;;23.00;38.20;;;;;;6095933;23;20412;-82
2022/05/28 13:16:15;;;;;;;2.07;1.53;;;22.70;38.70;;;;;;6127926;23;20410;-82
2022/05/28 13:19:24;;;;;;;3.10;1.07;;;23.30;38.90;;;;;;6124963;23;20434;-83
2022/05/28 13:22:28;;;;;;;4.43;2.23;;;23.70;37.20;;;;;;6122230;23;20439;-84
2022/05/28 13:25:01;;;;;;;5.13;1.70;;;24.20;35.10;;;;;;6098165;23;20388;-82